OISY  Yasouj Airport

Add Bookmark

Iran

Status
Operational
Latitude Longitude
30° 42' 1" N 51° 32' 42" E
30.700500 51.545101
Local (DST + 5) UTC (GMT + 4)
Jul 29, 2014 07:16 Jul 29, 2014 14:46
Sunrise-Sunset Local UTC
Begin Civil Twilight 05:52 01:22
Sunrise 06:18 01:48
Sunset 08:02 15:32
End Civil Twilight 08:28 15:58

Current Weather

METAR Observed VFR
OISY 291400Z 17008KT CAVOK 31/02 Q1012 Tue, Jul 29, 2014 @ 14:00 UTC
(46 Minutes ago)
Visual Flight Rules

Decoded METAR

Wind Visibility Clouds Conditions
170° at 8 knots (15 kph) 10 km or more
  • Clear skies
  • No significant weather
Temperatures Readings Precipitation
Current Temp 31°C (88°F)
Dewpoint 2°C (36°F)
Humidity 16%
Altimeter 29.88"Hg
Sea Level Pressure 1012mb
Field Elevation 5941.6'
None Recorded

Additional weather within a 92.6km radius of OISY

Map ICAO Location
OIAH 79.6km W (240°)

24 Hour Weather History

Loading
-

24 Hour Weather Graphs

Loading
-

CheckWX.com is intended as a tool to help pilots better visualize weather data. It is not intended as a substitute for an official weather briefing obtained from a Flight Service Station. CheckWX.com does not meet the FAA requirements for an official pre-flight weather briefing. Therefore, it's important that pilots still call and obtain an official FSS pre-flight weather briefing.